Time;durP1;ratioP1;P1;durP2;ratioP2;P2;SDS_P1;SDS_P2;PMS_P1;PMS_P2;Temp;Humidity;BMP_temperature;BMP_pressure;BME280_temperature;BME280_humidity;BME280_pressure;Samples;Min_cycle;Max_cycle;Signal;HPM_P1;HPM_P2
2021/01/05 00:03:00;;;;;;;38.15;27.55;;;;;;;3.28;95.08;99977.59;5076673;28;20051;-81
2021/01/05 00:06:05;;;;;;;34.80;26.02;;;;;;;3.25;94.64;99987.56;5083517;28;20059;-81
2021/01/05 00:09:09;;;;;;;33.83;24.77;;;;;;;3.27;94.47;99989.16;5096868;28;20074;-81
2021/01/05 00:12:16;;;;;;;34.22;24.25;;;;;;;3.35;94.17;99991.31;5096851;28;20055;-81
2021/01/05 00:15:20;;;;;;;30.83;23.45;;;;;;;3.40;93.89;99991.03;5096194;28;20051;-80
2021/01/05 00:18:25;;;;;;;26.85;20.85;;;;;;;3.39;93.44;100008.75;5084295;28;20051;-77
2021/01/05 00:21:30;;;;;;;25.90;19.25;;;;;;;3.26;92.99;100019.28;5096215;28;20445;-81
2021/01/05 00:24:35;;;;;;;25.50;19.48;;;;;;;3.20;92.76;100019.69;5080509;28;20070;-81
2021/01/05 00:27:40;;;;;;;24.15;19.10;;;;;;;3.16;92.14;100023.44;5096316;28;20067;-80
2021/01/05 00:30:45;;;;;;;25.45;18.50;;;;;;;3.15;92.57;100027.06;5096003;28;20055;-81
2021/01/05 00:33:49;;;;;;;25.75;19.92;;;;;;;3.11;92.75;100025.53;5096166;28;20417;-82
2021/01/05 00:36:53;;;;;;;24.17;18.65;;;;;;;3.17;92.91;100024.31;5083884;28;20043;-80
2021/01/05 00:39:58;;;;;;;25.42;19.35;;;;;;;3.20;92.95;100030.28;5063652;28;20478;-80
2021/01/05 00:43:03;;;;;;;25.50;19.58;;;;;;;3.27;92.81;100025.44;5095361;28;20406;-82
2021/01/05 00:46:09;;;;;;;26.98;19.45;;;;;;;3.24;92.81;100031.78;5096139;28;20055;-81
2021/01/05 00:49:13;;;;;;;25.90;20.00;;;;;;;3.29;93.26;100024.38;5096132;28;20383;-81
2021/01/05 00:52:18;;;;;;;24.65;19.05;;;;;;;3.39;93.37;100021.16;5083705;28;20051;-79
2021/01/05 00:55:23;;;;;;;26.58;19.73;;;;;;;3.35;93.20;100009.91;5082190;28;20047;-77
2021/01/05 00:58:29;;;;;;;26.75;20.83;;;;;;;3.41;93.27;100021.91;5083473;28;20051;-78
2021/01/05 01:01:34;;;;;;;24.55;18.75;;;;;;;3.42;93.32;100031.56;5095521;28;20517;-78
2021/01/05 01:04:40;;;;;;;25.02;18.77;;;;;;;3.45;93.39;100028.72;5083248;28;20229;-79
2021/01/05 01:07:45;;;;;;;25.15;17.75;;;;;;;3.37;93.00;100046.91;5083303;28;20106;-80
2021/01/05 01:10:49;;;;;;;25.13;18.50;;;;;;;3.32;93.24;100043.72;5095627;28;20047;-78
2021/01/05 01:13:55;;;;;;;21.80;17.02;;;;;;;3.37;93.13;100036.31;5071437;28;20043;-77
2021/01/05 01:17:00;;;;;;;21.27;17.55;;;;;;;3.34;93.00;100047.09;5082977;28;20067;-78
2021/01/05 01:20:06;;;;;;;21.33;17.50;;;;;;;3.35;93.12;100039.06;5082877;28;20043;-77
2021/01/05 01:23:14;;;;;;;21.23;16.67;;;;;;;3.37;93.00;100041.63;5082523;28;20047;-75
2021/01/05 01:26:22;;;;;;;23.30;17.00;;;;;;;3.49;92.90;100043.50;5082930;28;20375;-80
2021/01/05 01:29:27;;;;;;;22.05;16.15;;;;;;;3.49;92.94;100044.34;5082804;28;20454;-77
2021/01/05 01:32:33;;;;;;;22.00;16.27;;;;;;;3.48;93.37;100034.66;5082487;28;20434;-76
2021/01/05 01:35:37;;;;;;;21.17;16.38;;;;;;;3.40;92.54;100042.28;5094650;28;20055;-75
2021/01/05 01:38:42;;;;;;;21.83;16.50;;;;;;;3.34;92.34;100044.47;5082803;28;20059;-76
2021/01/05 01:41:46;;;;;;;19.25;16.33;;;;;;;3.31;92.77;100045.50;5082169;28;20055;-76
2021/01/05 01:44:51;;;;;;;21.10;17.13;;;;;;;3.33;92.63;100035.66;5082791;28;20039;-77
2021/01/05 01:47:58;;;;;;;21.70;17.30;;;;;;;3.47;92.29;100032.13;5082507;28;20047;-79
2021/01/05 01:51:03;;;;;;;23.38;18.15;;;;;;;3.45;92.76;100034.03;5082437;28;20055;-77
2021/01/05 01:54:33;;;;;;;23.35;17.60;;;;;;;3.47;92.38;100021.50;5095118;28;20055;-78
2021/01/05 01:57:49;;;;;;;21.67;16.05;;;;;;;3.59;92.73;100031.34;5081864;28;20055;-77
2021/01/05 02:01:16;;;;;;;21.90;16.92;;;;;;;3.63;92.77;100015.13;5082446;28;20066;-78
2021/01/05 02:04:44;;;;;;;21.73;17.48;;;;;;;3.66;92.87;100016.72;5094578;28;20051;-77
2021/01/05 02:08:08;;;;;;;21.50;16.70;;;;;;;3.72;92.57;100021.63;5094239;28;20062;-78
2021/01/05 02:11:44;;;;;;;21.10;17.27;;;;;;;3.63;92.74;100019.59;5094539;28;20493;-79
2021/01/05 02:15:03;;;;;;;20.10;16.50;;;;;;;3.68;92.83;99999.75;5066964;28;20122;-76
2021/01/05 02:18:20;;;;;;;21.63;16.90;;;;;;;3.70;92.69;100012.94;5102160;28;20055;-77
2021/01/05 02:21:31;;;;;;;18.92;14.98;;;;;;;3.71;92.89;100011.97;5101852;28;20393;-77
2021/01/05 02:25:04;;;;;;;21.63;17.08;;;;;;;3.66;92.76;100029.97;5102145;28;20473;-77
2021/01/05 02:28:11;;;;;;;22.00;17.38;;;;;;;3.64;92.83;100018.63;5102081;28;20047;-77
2021/01/05 02:31:30;;;;;;;23.23;17.35;;;;;;;3.69;93.11;100016.53;5090317;28;20054;-75
2021/01/05 02:34:56;;;;;;;19.75;16.85;;;;;;;3.67;93.06;100024.59;5090158;28;20059;-77
2021/01/05 02:39:03;;;;;;;21.40;16.17;;;;;;;3.64;93.18;100023.94;5114534;28;20039;-76
2021/01/05 02:43:03;;;;;;;21.65;16.85;;;;;;;3.55;93.05;100011.28;5104627;28;20051;-78
2021/01/05 02:46:37;;;;;;;22.50;17.33;;;;;;;3.65;93.25;100005.28;5114617;28;20366;-79
2021/01/05 02:50:07;;;;;;;20.83;17.02;;;;;;;3.68;93.50;99990.97;5114450;28;20051;-78
2021/01/05 02:54:02;;;;;;;20.92;15.63;;;;;;;3.78;93.33;99989.38;5101543;28;20042;-78
2021/01/05 02:57:49;;;;;;;21.95;16.08;;;;;;;3.82;93.20;99982.94;5104453;28;20054;-79
2021/01/05 03:01:05;;;;;;;20.73;16.33;;;;;;;3.78;93.27;99976.97;5113569;28;20036;-78
2021/01/05 03:04:28;;;;;;;20.77;16.58;;;;;;;3.79;93.27;99953.94;5113833;28;20043;-78
2021/01/05 03:07:51;;;;;;;20.52;15.73;;;;;;;3.79;93.23;99968.06;5114336;28;20047;-78
2021/01/05 03:11:25;;;;;;;21.43;17.23;;;;;;;3.77;93.36;99972.63;5114176;28;20481;-79
2021/01/05 03:15:09;;;;;;;21.58;16.75;;;;;;;3.89;93.58;99965.63;5114128;28;20086;-79
2021/01/05 03:19:01;;;;;;;20.92;16.67;;;;;;;3.94;93.61;99960.88;5102229;28;20066;-78
2021/01/05 03:22:28;;;;;;;22.38;18.17;;;;;;;3.91;93.62;99966.38;5105483;28;20059;-78
2021/01/05 03:25:54;;;;;;;21.17;16.98;;;;;;;3.97;93.53;99973.94;5117631;28;20509;-78
2021/01/05 03:29:18;;;;;;;20.83;17.30;;;;;;;3.89;93.13;99955.88;5117998;28;20429;-76
2021/01/05 03:32:41;;;;;;;20.50;16.20;;;;;;;3.85;93.22;99961.50;5117592;28;20054;-78
2021/01/05 03:36:05;;;;;;;18.45;15.65;;;;;;;3.83;93.01;99950.09;5117203;28;20152;-79
2021/01/05 03:39:27;;;;;;;;;;;;;;;3.81;93.36;99952.00;5125060;28;20055;-75
2021/01/05 03:42:50;;;;;;;22.02;16.40;;;;;;;3.89;93.40;99961.19;5117714;28;20335;-77
2021/01/05 03:46:14;;;;;;;21.58;17.05;;;;;;;3.88;93.42;99953.31;5117486;28;20046;-79
2021/01/05 03:49:37;;;;;;;22.60;17.63;;;;;;;3.89;93.46;99957.69;5117891;28;20490;-77
2021/01/05 03:52:59;;;;;;;21.23;16.95;;;;;;;3.87;93.77;99952.47;5117354;28;20051;-77
2021/01/05 03:56:22;;;;;;;21.15;17.35;;;;;;;3.91;93.24;99950.44;5117465;28;20055;-79
2021/01/05 03:59:45;;;;;;;20.70;17.38;;;;;;;3.92;93.28;99937.09;5117538;28;20046;-79
2021/01/05 04:03:07;;;;;;;19.80;16.73;;;;;;;3.97;93.25;99928.81;5117374;28;20047;-79
2021/01/05 04:06:12;;;;;;;21.67;17.98;;;;;;;4.00;93.06;99939.19;5104472;28;20062;-79
2021/01/05 04:09:16;;;;;;;23.83;18.02;;;;;;;3.99;93.04;99948.13;5117300;28;20054;-77
2021/01/05 04:12:21;;;;;;;22.23;17.38;;;;;;;3.92;93.74;99945.06;5117039;28;20490;-78
2021/01/05 04:15:28;;;;;;;23.85;16.88;;;;;;;3.94;93.88;99945.81;5117204;28;20062;-79
2021/01/05 04:18:32;;;;;;;21.38;17.48;;;;;;;3.97;93.83;99939.44;5117134;28;20050;-78
2021/01/05 04:21:36;;;;;;;20.52;17.05;;;;;;;4.02;94.05;99928.50;5117004;28;20062;-79
2021/01/05 04:24:40;;;;;;;21.15;16.95;;;;;;;4.09;93.79;99930.63;5116702;28;20492;-79
2021/01/05 04:27:46;;;;;;;18.98;16.08;;;;;;;4.12;93.87;99929.56;5116664;28;20046;-78
2021/01/05 04:30:50;;;;;;;21.23;16.63;;;;;;;4.04;93.67;99921.28;5115720;28;20051;-78
2021/01/05 04:33:54;;;;;;;20.08;16.98;;;;;;;4.04;93.44;99914.16;5116587;28;20405;-79
2021/01/05 04:36:58;;;;;;;22.27;17.33;;;;;;;3.99;93.41;99918.06;5076230;28;20494;-79
2021/01/05 04:40:04;;;;;;;21.30;17.27;;;;;;;3.99;93.32;99918.06;5076039;28;20047;-79
2021/01/05 04:43:31;;;;;;;25.30;17.40;;;;;;;3.90;93.38;99923.03;5075968;28;20064;-79
2021/01/05 04:46:46;;;;;;;20.92;16.58;;;;;;;3.91;93.42;99910.63;5076171;28;20063;-78
2021/01/05 04:50:09;;;;;;;24.13;17.92;;;;;;;3.99;93.39;99931.34;5075943;28;20055;-80
2021/01/05 04:53:29;;;;;;;22.05;17.08;;;;;;;4.05;93.31;99923.00;5074997;28;20047;-79
2021/01/05 04:56:45;;;;;;;20.27;16.58;;;;;;;4.12;93.06;99932.22;5075701;28;20047;-79
2021/01/05 05:00:02;;;;;;;22.42;17.15;;;;;;;4.14;92.99;99932.97;5074922;28;20044;-79
2021/01/05 05:03:44;;;;;;;21.42;17.00;;;;;;;4.10;92.79;99936.81;5075598;28;20407;-78
2021/01/05 05:07:04;;;;;;;20.45;16.15;;;;;;;4.03;92.60;99936.34;5070992;28;20043;-80
2021/01/05 05:10:16;;;;;;;19.92;15.98;;;;;;;4.01;92.68;99924.97;5051633;28;20048;-80
2021/01/05 05:13:40;;;;;;;133.15;98.88;;;;;;;4.00;92.23;99941.84;5055482;28;20506;-76
2021/01/05 05:17:19;;;;;;;34.72;25.13;;;;;;;3.97;92.50;99936.78;5035457;28;20057;-78
2021/01/05 05:20:46;;;;;;;23.02;17.98;;;;;;;3.93;92.72;99929.97;5035396;28;20052;-77
2021/01/05 05:23:54;;;;;;;21.60;17.80;;;;;;;3.99;92.71;99934.88;5034792;28;20168;-78
2021/01/05 05:27:14;;;;;;;23.45;17.83;;;;;;;3.97;93.19;99933.28;5034785;28;20045;-78
2021/01/05 05:30:44;;;;;;;25.27;17.55;;;;;;;4.02;92.58;99924.03;5034683;28;20052;-78
2021/01/05 05:33:51;;;;;;;24.42;18.20;;;;;;;4.06;92.73;99922.00;5036358;28;20044;-79
2021/01/05 05:37:10;;;;;;;27.83;19.52;;;;;;;4.09;92.99;99927.13;5073780;28;20051;-77
2021/01/05 05:40:23;;;;;;;26.23;20.23;;;;;;;4.10;92.79;99916.38;5074042;28;20075;-77
2021/01/05 05:43:54;;;;;;;23.42;18.52;;;;;;;4.07;92.83;99911.31;5073131;28;20514;-80
2021/01/05 05:47:11;;;;;;;26.60;18.85;;;;;;;4.09;93.03;99904.09;5066960;28;20047;-76
2021/01/05 05:50:33;;;;;;;29.73;19.90;;;;;;;4.15;93.13;99918.75;5074410;28;20067;-79
2021/01/05 05:53:49;;;;;;;24.63;19.42;;;;;;;4.12;92.71;99911.00;5058530;28;20051;-77
2021/01/05 05:57:03;;;;;;;25.33;19.33;;;;;;;4.20;93.05;99927.22;5073607;28;20047;-78
2021/01/05 06:00:23;;;;;;;27.80;19.88;;;;;;;4.15;93.05;99913.44;5074089;28;20432;-79
2021/01/05 06:03:28;;;;;;;25.75;19.00;;;;;;;4.19;93.18;99922.88;5073953;28;20060;-80
2021/01/05 06:06:34;;;;;;;27.10;19.98;;;;;;;4.23;93.39;99930.53;5073107;28;20047;-78
2021/01/05 06:09:39;;;;;;;25.13;19.75;;;;;;;4.25;92.97;99917.13;5072997;28;20399;-79
2021/01/05 06:12:43;;;;;;;23.10;18.23;;;;;;;4.21;92.81;99916.50;5073782;28;20048;-79
2021/01/05 06:15:47;;;;;;;22.25;18.23;;;;;;;4.23;93.05;99919.91;5071347;28;20063;-77
2021/01/05 06:18:52;;;;;;;25.92;20.17;;;;;;;4.23;93.31;99913.75;5072793;28;20051;-78
2021/01/05 06:21:56;;;;;;;24.60;18.80;;;;;;;4.23;93.19;99914.59;5072530;28;20051;-77
2021/01/05 06:25:01;;;;;;;21.83;17.50;;;;;;;4.26;93.21;99916.19;5073644;28;20506;-80
2021/01/05 06:28:06;;;;;;;23.30;17.30;;;;;;;4.24;93.46;99905.69;5073639;28;20052;-78
2021/01/05 06:31:11;;;;;;;25.00;18.83;;;;;;;4.21;93.33;99913.84;5073827;28;20060;-77
2021/01/05 06:34:15;;;;;;;27.42;19.33;;;;;;;4.26;93.46;99910.88;5073436;28;20043;-79
2021/01/05 06:37:19;;;;;;;30.45;22.27;;;;;;;4.21;93.20;99908.53;5059640;28;20407;-80
2021/01/05 06:40:26;;;;;;;32.72;23.15;;;;;;;4.28;93.10;99911.63;5073060;28;20059;-78
2021/01/05 06:43:31;;;;;;;37.83;26.08;;;;;;;4.23;93.24;99913.75;5072573;28;20185;-77
2021/01/05 06:46:35;;;;;;;37.97;28.25;;;;;;;4.17;93.67;99919.50;5073412;28;20387;-78
2021/01/05 06:49:41;;;;;;;39.17;28.13;;;;;;;4.10;94.06;99911.06;5073334;28;20047;-77
2021/01/05 06:52:45;;;;;;;44.92;30.10;;;;;;;4.12;94.55;99908.31;5072750;28;20450;-76
2021/01/05 06:55:49;;;;;;;48.60;32.92;;;;;;;4.06;95.02;99908.75;5072674;28;20498;-81
2021/01/05 06:58:55;;;;;;;48.72;32.55;;;;;;;4.02;95.39;99905.47;5052989;28;20052;-78
2021/01/05 07:02:03;;;;;;;57.45;35.83;;;;;;;4.00;95.61;99902.03;5065042;28;20051;-82
2021/01/05 07:05:08;;;;;;;57.70;35.47;;;;;;;4.07;96.20;99900.69;5072793;28;20047;-78
2021/01/05 07:08:12;;;;;;;69.68;38.88;;;;;;;4.12;96.40;99903.03;5069332;28;20052;-81
2021/01/05 07:11:17;;;;;;;68.80;39.42;;;;;;;4.09;96.81;99900.56;5072164;28;20048;-81
2021/01/05 07:14:24;;;;;;;72.97;40.10;;;;;;;4.03;96.99;99903.63;5068150;28;20055;-78
2021/01/05 07:17:28;;;;;;;74.22;39.15;;;;;;;4.00;97.27;99910.00;5072264;28;20107;-76
2021/01/05 07:20:32;;;;;;;71.05;37.78;;;;;;;4.12;98.02;99908.31;5072110;28;20071;-78
2021/01/05 07:23:37;;;;;;;74.47;39.55;;;;;;;4.11;97.83;99906.63;5070469;28;20399;-78
2021/01/05 07:26:50;;;;;;;72.20;37.15;;;;;;;4.21;98.03;99908.53;5070497;28;20044;-76
2021/01/05 07:29:54;;;;;;;71.65;35.88;;;;;;;4.24;98.25;99913.66;5070370;28;20043;-75
2021/01/05 07:32:59;;;;;;;75.35;35.70;;;;;;;4.32;98.42;99907.81;5070910;28;20506;-76
2021/01/05 07:36:07;;;;;;;83.07;35.65;;;;;;;4.30;98.53;99901.72;5084911;28;20067;-74
2021/01/05 07:39:22;;;;;;;78.53;36.22;;;;;;;4.38;98.84;99913.53;5093205;28;20051;-74
2021/01/05 07:42:30;;;;;;;93.47;37.03;;;;;;;4.29;98.94;99916.84;5080566;28;20055;-75
2021/01/05 07:45:34;;;;;;;89.88;36.63;;;;;;;4.20;99.54;99906.84;5092645;28;20442;-75
2021/01/05 07:48:39;;;;;;;92.93;37.90;;;;;;;4.21;99.85;99919.16;5092521;28;20070;-75
2021/01/05 07:51:47;;;;;;;86.03;36.83;;;;;;;4.23;99.89;99914.59;5093196;28;20142;-75
2021/01/05 07:54:51;;;;;;;84.20;34.13;;;;;;;4.23;100.00;99913.75;5092816;28;20067;-80
2021/01/05 07:57:56;;;;;;;77.13;33.20;;;;;;;4.23;100.00;99906.63;5092693;28;20466;-80
2021/01/05 08:01:01;;;;;;;70.63;31.02;;;;;;;4.25;100.00;99910.03;5092959;28;20382;-79
2021/01/05 08:04:06;;;;;;;68.85;30.33;;;;;;;4.27;100.00;99894.00;5092719;28;20039;-80
2021/01/05 08:07:10;;;;;;;67.90;29.73;;;;;;;4.29;100.00;99898.25;5096509;28;20485;-78
2021/01/05 08:10:36;;;;;;;70.28;32.38;;;;;;;4.27;100.00;99897.47;5083706;28;20138;-80
2021/01/05 08:13:40;;;;;;;63.38;29.45;;;;;;;4.33;100.00;99901.53;5096130;28;20074;-80
2021/01/05 08:16:48;;;;;;;65.55;28.60;;;;;;;4.32;100.00;99900.66;5083438;28;20043;-79
2021/01/05 08:19:53;;;;;;;54.45;26.90;;;;;;;4.40;100.00;99905.44;5095966;28;20051;-76
2021/01/05 08:22:59;;;;;;;58.58;26.23;;;;;;;4.30;99.54;99897.28;5095957;28;20047;-80
2021/01/05 08:26:10;;;;;;;57.30;26.40;;;;;;;4.31;99.59;99895.47;5095803;28;20047;-79
2021/01/05 08:29:15;;;;;;;49.95;25.60;;;;;;;4.28;99.66;99890.38;5095985;28;20043;-79
2021/01/05 08:32:22;;;;;;;45.22;25.83;;;;;;;4.40;99.72;99902.78;5083527;28;20039;-80
2021/01/05 08:35:27;;;;;;;47.63;25.85;;;;;;;4.36;99.28;99890.69;5095416;28;20062;-80
2021/01/05 08:38:32;;;;;;;47.00;26.40;;;;;;;4.36;99.01;99891.56;5083465;28;20055;-80
2021/01/05 08:41:36;;;;;;;46.72;25.55;;;;;;;4.43;99.08;99891.97;5083294;28;20059;-81
2021/01/05 08:44:43;;;;;;;40.35;24.83;;;;;;;4.47;98.65;99886.31;5095810;28;20063;-82
2021/01/05 08:47:48;;;;;;;36.80;22.35;;;;;;;4.44;98.53;99881.22;5095603;28;20477;-80
2021/01/05 08:50:52;;;;;;;44.30;24.98;;;;;;;4.40;98.02;99877.09;5095584;28;20055;-77
2021/01/05 08:53:56;;;;;;;40.38;23.75;;;;;;;4.45;98.19;99866.97;5082812;28;20051;-77
2021/01/05 08:57:01;;;;;;;37.90;21.80;;;;;;;4.49;97.93;99865.78;5095532;28;20067;-80
2021/01/05 09:00:07;;;;;;;39.05;22.02;;;;;;;4.49;97.70;99868.44;5095410;28;20110;-79
2021/01/05 09:03:11;;;;;;;34.05;21.25;;;;;;;4.58;97.60;99878.44;5082672;28;20059;-76
2021/01/05 09:06:22;;;;;;;39.00;22.40;;;;;;;4.56;97.32;99874.22;5095071;28;20155;-76
2021/01/05 09:09:26;;;;;;;35.78;20.88;;;;;;;4.65;97.34;99875.34;5094999;28;20047;-80
2021/01/05 09:12:35;;;;;;;35.55;20.75;;;;;;;4.54;97.15;99868.97;5094976;28;20051;-79
2021/01/05 09:15:40;;;;;;;34.00;20.25;;;;;;;4.51;97.27;99863.91;5094928;28;20055;-80
2021/01/05 09:18:44;;;;;;;34.63;20.35;;;;;;;4.52;97.39;99854.97;5082462;28;20047;-79
2021/01/05 09:21:48;;;;;;;38.83;22.73;;;;;;;4.51;97.33;99863.91;5094816;28;20370;-77
2021/01/05 09:24:54;;;;;;;43.97;21.88;;;;;;;4.59;97.35;99866.03;5094859;28;20047;-77
2021/01/05 09:27:59;;;;;;;53.80;23.38;;;;;;;4.63;97.59;99862.19;5094789;28;20047;-79
2021/01/05 09:31:05;;;;;;;41.63;20.38;;;;;;;4.53;97.39;99872.63;5094791;28;20047;-77
2021/01/05 09:34:12;;;;;;;33.63;18.83;;;;;;;4.48;97.46;99879.19;5094449;28;20497;-78
2021/01/05 09:37:17;;;;;;;29.17;17.83;;;;;;;4.41;97.27;99878.78;5082299;28;20051;-77
2021/01/05 09:40:21;;;;;;;30.05;18.48;;;;;;;4.45;97.18;99871.44;5082270;28;20051;-78
2021/01/05 09:43:26;;;;;;;29.27;17.38;;;;;;;4.45;97.30;99859.00;5094587;28;20050;-81
2021/01/05 09:46:31;;;;;;;29.27;17.60;;;;;;;4.39;97.38;99854.16;5094804;28;20074;-81
2021/01/05 09:49:35;;;;;;;36.03;19.55;;;;;;;4.42;97.23;99855.75;5094886;28;20051;-80
2021/01/05 09:52:39;;;;;;;35.88;19.13;;;;;;;4.47;97.16;99857.09;5094565;28;20046;-77
2021/01/05 09:55:44;;;;;;;38.85;20.08;;;;;;;4.45;97.20;99859.00;5094511;28;20379;-77
2021/01/05 09:58:48;;;;;;;37.88;21.33;;;;;;;4.39;97.41;99845.31;5081989;28;20043;-80
2021/01/05 10:01:54;;;;;;;38.50;21.33;;;;;;;4.42;97.61;99842.44;5094727;28;20055;-81
2021/01/05 10:04:59;;;;;;;43.03;20.48;;;;;;;4.45;97.86;99851.03;5094430;28;20383;-77
2021/01/05 10:08:03;;;;;;;40.92;21.63;;;;;;;4.42;97.76;99842.44;5094328;28;20412;-78
2021/01/05 10:11:08;;;;;;;35.03;19.80;;;;;;;4.32;97.83;99831.59;5081821;28;20059;-76
2021/01/05 10:14:16;;;;;;;37.28;19.63;;;;;;;4.39;98.19;99830.22;5094102;28;20059;-76
2021/01/05 10:17:20;;;;;;;55.67;21.02;;;;;;;4.31;98.28;99829.91;5093997;28;20051;-81
2021/01/05 10:20:25;;;;;;;49.33;21.13;;;;;;;4.35;97.93;99825.22;5094191;28;20055;-74
2021/01/05 10:23:30;;;;;;;83.85;24.45;;;;;;;4.35;97.70;99814.59;5093841;28;20059;-76
2021/01/05 10:26:35;;;;;;;48.03;22.08;;;;;;;4.37;98.26;99810.88;5093795;28;20059;-75
2021/01/05 10:29:39;;;;;;;41.85;20.38;;;;;;;4.35;98.21;99802.16;5092792;28;20051;-75
2021/01/05 10:32:45;;;;;;;51.33;20.77;;;;;;;4.39;98.42;99800.16;5093830;28;20055;-75
2021/01/05 10:35:49;;;;;;;47.35;19.77;;;;;;;4.41;98.32;99791.13;5093181;28;20051;-80
2021/01/05 10:38:54;;;;;;;42.35;20.35;;;;;;;4.42;98.34;99787.47;5093762;28;20390;-77
2021/01/05 10:42:01;;;;;;;37.70;20.13;;;;;;;4.51;98.35;99797.47;5093822;28;20482;-76
2021/01/05 10:45:07;;;;;;;36.05;21.00;;;;;;;4.53;98.14;99784.91;5081250;28;20055;-76
2021/01/05 10:48:12;;;;;;;42.72;22.00;;;;;;;4.47;98.10;99776.50;5093417;28;20490;-74
2021/01/05 10:51:17;;;;;;;40.35;21.00;;;;;;;4.40;98.08;99770.81;5093696;28;20051;-75
2021/01/05 10:54:23;;;;;;;40.72;21.15;;;;;;;4.40;98.32;99767.28;5093481;28;20047;-75
2021/01/05 10:57:27;;;;;;;42.35;21.55;;;;;;;4.36;98.57;99753.41;5081029;28;20047;-75
2021/01/05 11:00:41;;;;;;;40.65;20.67;;;;;;;4.41;98.71;99761.88;5093515;28;20039;-76
2021/01/05 11:03:45;;;;;;;34.28;18.77;;;;;;;4.29;98.86;99752.16;5081197;28;20071;-77
2021/01/05 11:06:54;;;;;;;38.13;20.80;;;;;;;4.34;99.15;99746.50;5093368;28;20055;-75
2021/01/05 11:09:59;;;;;;;38.17;20.45;;;;;;;4.36;99.13;99748.09;5093536;28;20055;-75
2021/01/05 11:13:03;;;;;;;36.13;20.52;;;;;;;4.48;98.81;99743.69;5093525;28;20485;-76
2021/01/05 11:16:08;;;;;;;31.55;18.42;;;;;;;4.55;99.16;99737.81;5093511;28;20051;-75
2021/01/05 11:19:13;;;;;;;36.95;19.95;;;;;;;4.61;99.29;99731.22;5093386;28;20410;-75
2021/01/05 11:22:19;;;;;;;31.30;18.95;;;;;;;4.67;99.29;99721.94;5093161;28;20051;-75
2021/01/05 11:25:24;;;;;;;30.25;17.67;;;;;;;4.72;99.30;99714.44;5081031;28;20477;-76
2021/01/05 11:28:28;;;;;;;27.92;17.00;;;;;;;4.74;99.00;99715.22;5093296;28;20336;-76
2021/01/05 11:31:32;;;;;;;31.65;18.65;;;;;;;4.77;98.99;99699.00;5080882;28;20379;-81
2021/01/05 11:34:38;;;;;;;29.88;18.85;;;;;;;4.80;98.91;99706.75;5093042;28;20494;-77
2021/01/05 11:37:44;;;;;;;28.55;16.77;;;;;;;4.83;98.78;99698.56;5093246;28;20050;-79
2021/01/05 11:40:48;;;;;;;28.30;16.88;;;;;;;4.86;98.75;99695.69;5095855;28;20375;-77
2021/01/05 11:43:53;;;;;;;28.17;15.68;;;;;;;4.87;98.77;99694.69;5097092;28;20059;-80
2021/01/05 11:46:58;;;;;;;26.65;16.25;;;;;;;4.88;98.93;99689.28;5084725;28;20051;-80
2021/01/05 11:50:07;;;;;;;23.80;14.50;;;;;;;4.90;98.57;99689.16;5084590;28;20051;-76
2021/01/05 11:53:12;;;;;;;23.80;14.40;;;;;;;4.98;98.71;99697.41;5084414;28;20166;-76
2021/01/05 11:56:23;;;;;;;24.15;15.90;;;;;;;4.85;98.33;99686.84;5096792;28;20055;-75
2021/01/05 11:59:28;;;;;;;22.13;14.20;;;;;;;4.86;98.28;99679.72;5096954;28;20055;-75
2021/01/05 12:02:33;;;;;;;24.88;15.07;;;;;;;4.88;98.50;99670.69;5096681;28;20040;-76
2021/01/05 12:05:37;;;;;;;21.75;14.18;;;;;;;4.95;98.38;99671.91;5096705;28;20039;-76
2021/01/05 12:08:42;;;;;;;19.90;13.55;;;;;;;4.93;98.35;99671.19;5096721;28;20059;-76
2021/01/05 12:11:47;;;;;;;24.88;15.18;;;;;;;4.99;98.38;99667.19;5096536;28;20489;-76
2021/01/05 12:14:51;;;;;;;29.02;16.77;;;;;;;4.96;98.45;99657.63;5072468;28;20502;-80
2021/01/05 12:17:55;;;;;;;20.98;14.50;;;;;;;4.90;98.53;99655.44;5096487;28;20059;-75
2021/01/05 12:21:00;;;;;;;17.75;13.02;;;;;;;4.74;97.94;99646.09;5083949;28;20051;-80
2021/01/05 12:24:06;;;;;;;23.17;14.13;;;;;;;4.73;98.20;99653.22;5096369;28;20063;-75
2021/01/05 12:27:14;;;;;;;24.50;15.35;;;;;;;4.64;97.88;99656.56;5096733;28;20051;-76
2021/01/05 12:30:20;;;;;;;20.38;13.18;;;;;;;4.52;98.05;99655.66;5096236;28;20055;-76
2021/01/05 12:33:25;;;;;;;14.30;9.85;;;;;;;4.39;98.35;99644.25;5096260;28;20059;-76
2021/01/05 12:36:32;;;;;;;9.93;5.90;;;;;;;4.29;95.95;99659.19;5095523;28;20047;-76
2021/01/05 12:39:37;;;;;;;9.23;6.95;;;;;;;4.23;96.59;99656.09;5083723;28;20398;-76
2021/01/05 12:42:41;;;;;;;12.35;8.38;;;;;;;4.07;95.75;99647.56;5095741;28;20055;-76
2021/01/05 12:45:46;;;;;;;8.85;5.93;;;;;;;4.10;95.81;99656.13;5096304;28;20043;-76
2021/01/05 12:48:51;;;;;;;6.38;4.60;;;;;;;4.04;94.78;99648.63;5095842;28;20051;-79
2021/01/05 12:51:55;;;;;;;6.75;4.82;;;;;;;4.18;94.07;99659.09;5094739;28;20398;-75
2021/01/05 12:55:00;;;;;;;9.43;6.60;;;;;;;4.19;93.77;99650.19;5095766;28;20066;-76
2021/01/05 12:58:05;;;;;;;8.90;7.20;;;;;;;4.12;94.35;99650.72;5095796;28;20505;-76
2021/01/05 13:01:10;;;;;;;8.40;6.47;;;;;;;4.04;93.98;99650.44;5095642;28;20051;-76
2021/01/05 13:04:14;;;;;;;9.68;6.97;;;;;;;4.09;93.98;99643.84;5095501;28;20059;-75
2021/01/05 13:07:21;;;;;;;10.50;7.82;;;;;;;3.97;94.07;99639.41;5095746;28;20126;-76
2021/01/05 13:10:28;;;;;;;10.35;7.88;;;;;;;3.92;94.02;99655.69;5082825;28;20051;-76
2021/01/05 13:13:32;;;;;;;10.85;7.47;;;;;;;3.75;93.76;99647.22;5095438;28;20055;-75
2021/01/05 13:16:37;;;;;;;7.60;6.05;;;;;;;3.56;94.24;99647.66;5083061;28;20047;-76
2021/01/05 13:19:41;;;;;;;7.97;6.65;;;;;;;3.53;94.60;99637.25;5095206;28;20047;-77
2021/01/05 13:22:46;;;;;;;7.63;5.55;;;;;;;3.65;94.84;99635.56;5082684;28;20047;-75
2021/01/05 13:25:50;;;;;;;7.57;5.70;;;;;;;3.75;94.67;99645.38;5095160;28;20050;-76
2021/01/05 13:28:55;;;;;;;9.75;6.00;;;;;;;3.78;94.52;99633.72;5082751;28;20051;-76
2021/01/05 13:32:03;;;;;;;9.07;6.13;;;;;;;3.75;93.74;99639.25;5094946;28;20043;-76
2021/01/05 13:35:08;;;;;;;8.73;6.75;;;;;;;3.78;93.72;99645.19;5094565;28;20059;-76
2021/01/05 13:38:14;;;;;;;7.47;5.95;;;;;;;3.72;93.19;99640.31;5094975;28;20047;-76
2021/01/05 13:41:24;;;;;;;6.60;5.72;;;;;;;3.78;92.97;99639.88;5094794;28;20051;-74
2021/01/05 13:44:29;;;;;;;9.90;7.97;;;;;;;3.83;92.48;99631.56;5094207;28;20051;-74
2021/01/05 13:47:33;;;;;;;7.82;5.60;;;;;;;3.91;93.01;99640.69;5082302;28;20396;-76
2021/01/05 13:50:38;;;;;;;7.40;5.80;;;;;;;3.89;92.99;99639.13;5094666;28;20055;-76
2021/01/05 13:53:43;;;;;;;7.10;4.85;;;;;;;3.91;92.85;99631.88;5094398;28;20481;-77
2021/01/05 13:56:56;;;;;;;5.70;4.53;;;;;;;3.92;92.81;99637.09;5094584;28;20051;-74
2021/01/05 14:00:01;;;;;;;5.43;3.75;;;;;;;3.95;92.81;99628.03;5095030;28;20047;-75
2021/01/05 14:03:06;;;;;;;6.18;4.10;;;;;;;3.93;92.94;99627.31;5094724;28;20054;-75
2021/01/05 14:06:24;;;;;;;5.63;3.85;;;;;;;3.97;93.05;99631.44;5094888;28;20047;-75
2021/01/05 14:09:29;;;;;;;4.82;3.45;;;;;;;3.99;93.08;99631.31;5094765;28;20054;-75
2021/01/05 14:12:34;;;;;;;4.45;3.33;;;;;;;3.99;93.08;99629.53;5094781;28;20047;-74
2021/01/05 14:15:38;;;;;;;4.90;3.35;;;;;;;4.01;93.01;99635.56;5094676;28;20110;-75
2021/01/05 14:18:46;;;;;;;4.55;3.25;;;;;;;4.04;93.31;99638.00;5094641;28;20039;-75
2021/01/05 14:21:51;;;;;;;5.97;3.42;;;;;;;4.03;92.77;99636.31;5094586;28;20043;-74
2021/01/05 14:24:57;;;;;;;5.60;3.75;;;;;;;3.96;93.08;99640.38;5094420;28;20062;-79
2021/01/05 14:28:01;;;;;;;5.88;3.65;;;;;;;3.91;92.92;99638.03;5094503;28;20063;-80
2021/01/05 14:31:11;;;;;;;6.25;3.95;;;;;;;3.93;93.27;99643.22;5094710;28;20054;-76
2021/01/05 14:34:16;;;;;;;4.68;3.33;;;;;;;3.90;93.62;99641.66;5094410;28;20508;-76
2021/01/05 14:37:21;;;;;;;5.05;3.80;;;;;;;3.94;93.54;99645.78;5081624;28;20047;-76
2021/01/05 14:40:26;;;;;;;4.00;3.30;;;;;;;3.87;93.83;99641.88;5081992;28;20399;-76
2021/01/05 14:43:32;;;;;;;5.50;3.47;;;;;;;3.87;93.90;99643.69;5094250;28;20055;-76
2021/01/05 14:46:39;;;;;;;4.97;3.53;;;;;;;3.82;93.98;99652.00;5081904;28;20051;-78